Carinhanha, Brazil
Current Conditions -  °F | °C
As of 10:00 AM on Friday 19 Dec 2014 (Local Time) from SBMK Reporting Station
Scattered Clouds Scattered Clouds  
Wind Chill: 82°   Ceiling: Unl
Heat Index: 85°   Visibility: 6mi
Dew Point: 66°   Wind: 5mph
Humidity: 58%   Direction: NA
Pressure: 29.94"   Gusts: NA
Location:  14.3°S, 43.78°W
Report Text: SBMK 191300Z VRB04KT 9999 SCT030 28/19 Q1014
Loading
Personal Weather Stations






























Interactive Weather Map New forecast layout! Learn more

10-Day Weather Forecast

Advertisements
Track Severe Weather on mobile